sensor_id;sensor_type;location;lat;lon;timestamp;P1;durP1;ratioP1;P2;durP2;ratioP2
7336;SDS011;54510;42.016;23.098;2023-07-31T00:01:52;5.53;;;4.15;;
7336;SDS011;54510;42.016;23.098;2023-07-31T00:04:17;6.55;;;3.50;;
7336;SDS011;54510;42.016;23.098;2023-07-31T00:06:43;6.60;;;3.92;;
7336;SDS011;54510;42.016;23.098;2023-07-31T00:09:08;6.15;;;4.00;;
7336;SDS011;54510;42.016;23.098;2023-07-31T00:11:34;8.07;;;3.45;;
7336;SDS011;54510;42.016;23.098;2023-07-31T00:13:59;7.10;;;3.83;;
7336;SDS011;54510;42.016;23.098;2023-07-31T00:16:25;4.47;;;3.38;;
7336;SDS011;54510;42.016;23.098;2023-07-31T00:18:50;6.70;;;3.63;;
7336;SDS011;54510;42.016;23.098;2023-07-31T00:21:16;7.30;;;4.10;;
7336;SDS011;54510;42.016;23.098;2023-07-31T00:23:41;8.80;;;4.05;;
7336;SDS011;54510;42.016;23.098;2023-07-31T00:26:07;6.55;;;3.80;;
7336;SDS011;54510;42.016;23.098;2023-07-31T00:28:32;4.68;;;3.17;;
7336;SDS011;54510;42.016;23.098;2023-07-31T00:30:57;7.13;;;3.20;;
7336;SDS011;54510;42.016;23.098;2023-07-31T00:33:23;4.88;;;2.95;;
7336;SDS011;54510;42.016;23.098;2023-07-31T00:35:48;6.32;;;3.17;;
7336;SDS011;54510;42.016;23.098;2023-07-31T00:38:14;5.80;;;2.80;;
7336;SDS011;54510;42.016;23.098;2023-07-31T00:40:39;6.75;;;3.58;;
7336;SDS011;54510;42.016;23.098;2023-07-31T00:43:05;8.20;;;3.10;;
7336;SDS011;54510;42.016;23.098;2023-07-31T00:45:30;5.15;;;3.33;;
7336;SDS011;54510;42.016;23.098;2023-07-31T00:47:57;3.88;;;2.83;;
7336;SDS011;54510;42.016;23.098;2023-07-31T00:50:24;4.40;;;2.63;;
7336;SDS011;54510;42.016;23.098;2023-07-31T00:52:50;4.63;;;2.67;;
7336;SDS011;54510;42.016;23.098;2023-07-31T00:55:16;4.40;;;2.60;;
7336;SDS011;54510;42.016;23.098;2023-07-31T00:57:42;6.20;;;2.65;;
7336;SDS011;54510;42.016;23.098;2023-07-31T01:00:08;5.53;;;2.40;;
7336;SDS011;54510;42.016;23.098;2023-07-31T01:02:35;5.05;;;2.97;;
7336;SDS011;54510;42.016;23.098;2023-07-31T01:05:01;3.60;;;2.47;;
7336;SDS011;54510;42.016;23.098;2023-07-31T01:07:35;4.82;;;2.80;;
7336;SDS011;54510;42.016;23.098;2023-07-31T01:12:48;4.03;;;3.00;;
7336;SDS011;54510;42.016;23.098;2023-07-31T01:15:16;4.95;;;2.92;;
7336;SDS011;54510;42.016;23.098;2023-07-31T01:17:42;5.95;;;3.47;;
7336;SDS011;54510;42.016;23.098;2023-07-31T01:20:18;4.53;;;3.22;;
7336;SDS011;54510;42.016;23.098;2023-07-31T01:29:17;4.90;;;3.72;;
7336;SDS011;54510;42.016;23.098;2023-07-31T01:31:18;5.60;;;3.28;;
7336;SDS011;54510;42.016;23.098;2023-07-31T01:33:48;5.70;;;3.40;;
7336;SDS011;54510;42.016;23.098;2023-07-31T01:36:15;4.57;;;3.13;;
7336;SDS011;54510;42.016;23.098;2023-07-31T01:38:40;4.50;;;3.38;;
7336;SDS011;54510;42.016;23.098;2023-07-31T01:41:06;6.63;;;3.72;;
7336;SDS011;54510;42.016;23.098;2023-07-31T01:43:31;5.32;;;3.20;;
7336;SDS011;54510;42.016;23.098;2023-07-31T01:45:57;5.50;;;3.30;;
7336;SDS011;54510;42.016;23.098;2023-07-31T01:48:22;6.82;;;3.42;;
7336;SDS011;54510;42.016;23.098;2023-07-31T01:50:47;4.68;;;3.40;;
7336;SDS011;54510;42.016;23.098;2023-07-31T01:53:13;5.45;;;3.50;;
7336;SDS011;54510;42.016;23.098;2023-07-31T01:55:38;4.85;;;3.50;;
7336;SDS011;54510;42.016;23.098;2023-07-31T01:58:04;6.15;;;3.90;;
7336;SDS011;54510;42.016;23.098;2023-07-31T02:00:29;7.85;;;3.80;;
7336;SDS011;54510;42.016;23.098;2023-07-31T02:02:54;5.60;;;3.92;;
7336;SDS011;54510;42.016;23.098;2023-07-31T02:05:20;5.25;;;3.55;;
7336;SDS011;54510;42.016;23.098;2023-07-31T02:07:45;5.20;;;3.30;;
7336;SDS011;54510;42.016;23.098;2023-07-31T02:10:11;6.78;;;4.00;;
7336;SDS011;54510;42.016;23.098;2023-07-31T02:12:36;6.53;;;3.92;;
7336;SDS011;54510;42.016;23.098;2023-07-31T02:15:01;6.55;;;3.88;;
7336;SDS011;54510;42.016;23.098;2023-07-31T02:17:27;4.93;;;3.63;;
7336;SDS011;54510;42.016;23.098;2023-07-31T02:19:53;6.03;;;3.80;;
7336;SDS011;54510;42.016;23.098;2023-07-31T02:22:19;6.65;;;4.13;;
7336;SDS011;54510;42.016;23.098;2023-07-31T02:24:44;7.35;;;4.03;;
7336;SDS011;54510;42.016;23.098;2023-07-31T02:27:10;6.85;;;3.78;;
7336;SDS011;54510;42.016;23.098;2023-07-31T02:29:35;6.45;;;3.63;;
7336;SDS011;54510;42.016;23.098;2023-07-31T02:32:00;5.82;;;4.45;;
7336;SDS011;54510;42.016;23.098;2023-07-31T02:34:26;5.68;;;3.95;;
7336;SDS011;54510;42.016;23.098;2023-07-31T02:36:51;5.88;;;4.20;;
7336;SDS011;54510;42.016;23.098;2023-07-31T02:39:16;5.63;;;4.55;;
7336;SDS011;54510;42.016;23.098;2023-07-31T02:41:42;5.18;;;4.00;;
7336;SDS011;54510;42.016;23.098;2023-07-31T02:44:07;5.25;;;4.22;;
7336;SDS011;54510;42.016;23.098;2023-07-31T02:46:33;5.85;;;4.40;;
7336;SDS011;54510;42.016;23.098;2023-07-31T02:48:58;5.35;;;3.38;;
7336;SDS011;54510;42.016;23.098;2023-07-31T02:51:25;5.53;;;3.90;;
7336;SDS011;54510;42.016;23.098;2023-07-31T02:53:50;7.70;;;3.85;;
7336;SDS011;54510;42.016;23.098;2023-07-31T02:56:15;6.00;;;3.90;;
7336;SDS011;54510;42.016;23.098;2023-07-31T02:58:41;4.20;;;3.28;;
7336;SDS011;54510;42.016;23.098;2023-07-31T03:01:06;9.32;;;4.00;;
7336;SDS011;54510;42.016;23.098;2023-07-31T03:03:31;5.40;;;4.03;;
7336;SDS011;54510;42.016;23.098;2023-07-31T03:05:57;4.35;;;3.58;;
7336;SDS011;54510;42.016;23.098;2023-07-31T03:08:22;5.22;;;3.85;;
7336;SDS011;54510;42.016;23.098;2023-07-31T03:10:48;8.48;;;4.63;;
7336;SDS011;54510;42.016;23.098;2023-07-31T03:13:13;5.60;;;4.43;;
7336;SDS011;54510;42.016;23.098;2023-07-31T03:15:41;8.13;;;5.82;;
7336;SDS011;54510;42.016;23.098;2023-07-31T03:18:07;7.38;;;5.32;;
7336;SDS011;54510;42.016;23.098;2023-07-31T03:20:32;7.53;;;4.70;;
7336;SDS011;54510;42.016;23.098;2023-07-31T03:22:58;6.32;;;5.35;;
7336;SDS011;54510;42.016;23.098;2023-07-31T03:25:23;8.35;;;5.35;;
7336;SDS011;54510;42.016;23.098;2023-07-31T03:27:49;8.60;;;5.95;;
7336;SDS011;54510;42.016;23.098;2023-07-31T03:30:14;7.55;;;5.45;;
7336;SDS011;54510;42.016;23.098;2023-07-31T03:32:39;8.60;;;6.03;;
7336;SDS011;54510;42.016;23.098;2023-07-31T03:35:05;6.95;;;5.18;;
7336;SDS011;54510;42.016;23.098;2023-07-31T03:37:30;8.88;;;5.00;;
7336;SDS011;54510;42.016;23.098;2023-07-31T03:39:56;7.15;;;5.25;;
7336;SDS011;54510;42.016;23.098;2023-07-31T03:42:22;7.25;;;5.32;;
7336;SDS011;54510;42.016;23.098;2023-07-31T03:44:47;7.22;;;5.75;;
7336;SDS011;54510;42.016;23.098;2023-07-31T03:47:13;9.00;;;5.32;;
7336;SDS011;54510;42.016;23.098;2023-07-31T03:49:38;7.93;;;5.60;;
7336;SDS011;54510;42.016;23.098;2023-07-31T03:52:04;8.07;;;5.35;;
7336;SDS011;54510;42.016;23.098;2023-07-31T03:54:29;9.20;;;6.53;;
7336;SDS011;54510;42.016;23.098;2023-07-31T03:56:55;8.85;;;5.93;;
7336;SDS011;54510;42.016;23.098;2023-07-31T03:59:20;10.27;;;5.70;;
7336;SDS011;54510;42.016;23.098;2023-07-31T04:01:45;8.98;;;5.72;;
7336;SDS011;54510;42.016;23.098;2023-07-31T04:04:11;9.93;;;5.82;;
7336;SDS011;54510;42.016;23.098;2023-07-31T04:06:36;12.57;;;6.60;;
7336;SDS011;54510;42.016;23.098;2023-07-31T04:09:02;9.00;;;6.63;;
7336;SDS011;54510;42.016;23.098;2023-07-31T04:11:28;9.38;;;6.32;;
7336;SDS011;54510;42.016;23.098;2023-07-31T04:13:53;10.32;;;6.60;;
7336;SDS011;54510;42.016;23.098;2023-07-31T04:16:19;9.05;;;6.45;;
7336;SDS011;54510;42.016;23.098;2023-07-31T04:18:44;7.95;;;6.93;;
7336;SDS011;54510;42.016;23.098;2023-07-31T04:21:09;12.35;;;6.88;;
7336;SDS011;54510;42.016;23.098;2023-07-31T04:23:35;9.93;;;7.15;;
7336;SDS011;54510;42.016;23.098;2023-07-31T04:26:00;11.38;;;7.63;;
7336;SDS011;54510;42.016;23.098;2023-07-31T04:28:26;15.77;;;8.90;;
7336;SDS011;54510;42.016;23.098;2023-07-31T04:30:51;11.43;;;6.45;;
7336;SDS011;54510;42.016;23.098;2023-07-31T04:33:18;8.02;;;6.40;;
7336;SDS011;54510;42.016;23.098;2023-07-31T04:35:53;8.70;;;6.60;;
7336;SDS011;54510;42.016;23.098;2023-07-31T04:38:19;12.13;;;6.85;;
7336;SDS011;54510;42.016;23.098;2023-07-31T04:40:46;9.75;;;6.38;;
7336;SDS011;54510;42.016;23.098;2023-07-31T04:43:11;11.50;;;7.40;;
7336;SDS011;54510;42.016;23.098;2023-07-31T04:45:37;10.48;;;6.95;;
7336;SDS011;54510;42.016;23.098;2023-07-31T04:48:02;10.88;;;6.88;;
7336;SDS011;54510;42.016;23.098;2023-07-31T04:50:28;9.15;;;6.72;;
7336;SDS011;54510;42.016;23.098;2023-07-31T04:52:55;9.85;;;6.78;;
7336;SDS011;54510;42.016;23.098;2023-07-31T04:55:20;15.82;;;7.18;;
7336;SDS011;54510;42.016;23.098;2023-07-31T04:57:45;7.65;;;6.40;;
7336;SDS011;54510;42.016;23.098;2023-07-31T05:00:11;11.27;;;6.38;;
7336;SDS011;54510;42.016;23.098;2023-07-31T05:02:36;10.30;;;6.85;;
7336;SDS011;54510;42.016;23.098;2023-07-31T05:05:02;12.25;;;7.32;;
7336;SDS011;54510;42.016;23.098;2023-07-31T05:07:27;14.05;;;7.35;;
7336;SDS011;54510;42.016;23.098;2023-07-31T05:09:53;13.13;;;7.20;;
7336;SDS011;54510;42.016;23.098;2023-07-31T05:12:18;9.85;;;7.95;;
7336;SDS011;54510;42.016;23.098;2023-07-31T05:14:44;13.00;;;8.45;;
7336;SDS011;54510;42.016;23.098;2023-07-31T05:17:09;15.80;;;7.32;;
7336;SDS011;54510;42.016;23.098;2023-07-31T05:19:34;11.88;;;7.82;;
7336;SDS011;54510;42.016;23.098;2023-07-31T05:22:00;10.57;;;7.05;;
7336;SDS011;54510;42.016;23.098;2023-07-31T05:24:25;12.25;;;8.20;;
7336;SDS011;54510;42.016;23.098;2023-07-31T05:26:51;9.75;;;7.65;;
7336;SDS011;54510;42.016;23.098;2023-07-31T05:29:16;13.73;;;8.10;;
7336;SDS011;54510;42.016;23.098;2023-07-31T05:31:41;11.45;;;8.95;;
7336;SDS011;54510;42.016;23.098;2023-07-31T05:34:07;14.77;;;8.98;;
7336;SDS011;54510;42.016;23.098;2023-07-31T05:36:32;13.43;;;10.30;;
7336;SDS011;54510;42.016;23.098;2023-07-31T05:38:57;14.27;;;9.63;;
7336;SDS011;54510;42.016;23.098;2023-07-31T05:41:23;16.08;;;10.30;;
7336;SDS011;54510;42.016;23.098;2023-07-31T05:43:48;14.38;;;10.55;;
7336;SDS011;54510;42.016;23.098;2023-07-31T05:46:14;15.27;;;10.80;;
7336;SDS011;54510;42.016;23.098;2023-07-31T05:48:39;13.52;;;11.10;;
7336;SDS011;54510;42.016;23.098;2023-07-31T05:51:04;14.80;;;11.82;;
7336;SDS011;54510;42.016;23.098;2023-07-31T05:53:30;13.90;;;10.65;;
7336;SDS011;54510;42.016;23.098;2023-07-31T05:55:55;17.38;;;12.65;;
7336;SDS011;54510;42.016;23.098;2023-07-31T05:58:21;18.00;;;14.07;;
7336;SDS011;54510;42.016;23.098;2023-07-31T06:00:46;16.27;;;13.63;;
7336;SDS011;54510;42.016;23.098;2023-07-31T06:03:12;18.50;;;14.25;;
7336;SDS011;54510;42.016;23.098;2023-07-31T06:05:37;16.17;;;12.68;;
7336;SDS011;54510;42.016;23.098;2023-07-31T06:08:03;18.55;;;13.48;;
7336;SDS011;54510;42.016;23.098;2023-07-31T06:10:28;18.77;;;13.25;;
7336;SDS011;54510;42.016;23.098;2023-07-31T06:12:54;17.42;;;13.55;;
7336;SDS011;54510;42.016;23.098;2023-07-31T06:15:19;18.73;;;14.07;;
7336;SDS011;54510;42.016;23.098;2023-07-31T06:17:45;18.20;;;13.52;;
7336;SDS011;54510;42.016;23.098;2023-07-31T06:20:10;15.23;;;12.27;;
7336;SDS011;54510;42.016;23.098;2023-07-31T06:22:36;17.85;;;12.50;;
7336;SDS011;54510;42.016;23.098;2023-07-31T06:25:01;18.58;;;13.88;;
7336;SDS011;54510;42.016;23.098;2023-07-31T06:27:27;17.75;;;12.20;;
7336;SDS011;54510;42.016;23.098;2023-07-31T06:29:52;15.88;;;13.02;;
7336;SDS011;54510;42.016;23.098;2023-07-31T06:32:18;13.85;;;10.82;;
7336;SDS011;54510;42.016;23.098;2023-07-31T06:34:43;16.52;;;12.40;;
7336;SDS011;54510;42.016;23.098;2023-07-31T06:37:09;17.25;;;11.57;;
7336;SDS011;54510;42.016;23.098;2023-07-31T06:39:34;14.55;;;10.70;;
7336;SDS011;54510;42.016;23.098;2023-07-31T06:41:59;17.00;;;12.43;;
7336;SDS011;54510;42.016;23.098;2023-07-31T06:44:25;14.35;;;10.93;;
7336;SDS011;54510;42.016;23.098;2023-07-31T06:46:51;12.60;;;9.90;;
7336;SDS011;54510;42.016;23.098;2023-07-31T06:49:16;11.27;;;9.77;;
7336;SDS011;54510;42.016;23.098;2023-07-31T06:51:41;14.02;;;10.57;;
7336;SDS011;54510;42.016;23.098;2023-07-31T06:54:08;12.73;;;10.07;;
7336;SDS011;54510;42.016;23.098;2023-07-31T06:56:33;13.98;;;10.35;;
7336;SDS011;54510;42.016;23.098;2023-07-31T06:58:59;11.20;;;9.40;;
7336;SDS011;54510;42.016;23.098;2023-07-31T07:01:24;11.85;;;9.90;;
7336;SDS011;54510;42.016;23.098;2023-07-31T07:03:50;13.30;;;10.00;;
7336;SDS011;54510;42.016;23.098;2023-07-31T07:06:16;13.60;;;11.63;;
7336;SDS011;54510;42.016;23.098;2023-07-31T07:08:43;14.10;;;11.20;;
7336;SDS011;54510;42.016;23.098;2023-07-31T07:11:08;13.43;;;10.38;;
7336;SDS011;54510;42.016;23.098;2023-07-31T07:13:33;16.60;;;11.60;;
7336;SDS011;54510;42.016;23.098;2023-07-31T07:15:59;15.40;;;10.98;;
7336;SDS011;54510;42.016;23.098;2023-07-31T07:18:24;14.20;;;10.80;;
7336;SDS011;54510;42.016;23.098;2023-07-31T07:20:50;15.43;;;11.40;;
7336;SDS011;54510;42.016;23.098;2023-07-31T07:23:17;16.08;;;10.48;;
7336;SDS011;54510;42.016;23.098;2023-07-31T07:25:43;16.25;;;11.10;;
7336;SDS011;54510;42.016;23.098;2023-07-31T07:28:09;14.75;;;10.32;;
7336;SDS011;54510;42.016;23.098;2023-07-31T07:30:35;14.35;;;10.15;;
7336;SDS011;54510;42.016;23.098;2023-07-31T07:33:00;13.65;;;10.52;;
7336;SDS011;54510;42.016;23.098;2023-07-31T07:35:26;16.80;;;12.20;;
7336;SDS011;54510;42.016;23.098;2023-07-31T07:37:51;13.38;;;10.82;;
7336;SDS011;54510;42.016;23.098;2023-07-31T07:40:16;12.50;;;9.50;;
7336;SDS011;54510;42.016;23.098;2023-07-31T07:42:42;13.07;;;10.18;;
7336;SDS011;54510;42.016;23.098;2023-07-31T07:45:07;12.93;;;9.65;;
7336;SDS011;54510;42.016;23.098;2023-07-31T07:47:33;9.63;;;8.63;;
7336;SDS011;54510;42.016;23.098;2023-07-31T07:49:59;13.82;;;8.90;;
7336;SDS011;54510;42.016;23.098;2023-07-31T07:52:24;14.68;;;9.52;;
7336;SDS011;54510;42.016;23.098;2023-07-31T07:54:50;14.15;;;9.57;;
7336;SDS011;54510;42.016;23.098;2023-07-31T07:57:15;10.48;;;8.30;;
7336;SDS011;54510;42.016;23.098;2023-07-31T07:59:41;10.10;;;8.32;;
7336;SDS011;54510;42.016;23.098;2023-07-31T08:02:07;9.50;;;8.30;;
7336;SDS011;54510;42.016;23.098;2023-07-31T08:04:32;9.27;;;8.15;;
7336;SDS011;54510;42.016;23.098;2023-07-31T08:06:58;9.98;;;7.90;;
7336;SDS011;54510;42.016;23.098;2023-07-31T08:09:23;9.50;;;7.13;;
7336;SDS011;54510;42.016;23.098;2023-07-31T08:11:49;8.75;;;7.57;;
7336;SDS011;54510;42.016;23.098;2023-07-31T08:14:14;8.82;;;7.35;;
7336;SDS011;54510;42.016;23.098;2023-07-31T08:16:39;8.77;;;6.78;;
7336;SDS011;54510;42.016;23.098;2023-07-31T08:19:05;9.40;;;6.78;;
7336;SDS011;54510;42.016;23.098;2023-07-31T08:21:31;8.80;;;5.90;;
7336;SDS011;54510;42.016;23.098;2023-07-31T08:23:56;9.32;;;6.65;;
7336;SDS011;54510;42.016;23.098;2023-07-31T08:26:22;6.10;;;5.47;;
7336;SDS011;54510;42.016;23.098;2023-07-31T08:28:47;6.63;;;5.88;;
7336;SDS011;54510;42.016;23.098;2023-07-31T08:31:13;7.40;;;4.68;;
7336;SDS011;54510;42.016;23.098;2023-07-31T08:33:38;11.20;;;6.00;;
7336;SDS011;54510;42.016;23.098;2023-07-31T08:36:05;4.78;;;4.28;;
7336;SDS011;54510;42.016;23.098;2023-07-31T08:38:31;5.78;;;4.65;;
7336;SDS011;54510;42.016;23.098;2023-07-31T08:40:57;5.88;;;3.97;;
7336;SDS011;54510;42.016;23.098;2023-07-31T08:43:23;6.40;;;4.88;;
7336;SDS011;54510;42.016;23.098;2023-07-31T08:45:51;6.30;;;5.07;;
7336;SDS011;54510;42.016;23.098;2023-07-31T08:48:16;6.60;;;4.85;;
7336;SDS011;54510;42.016;23.098;2023-07-31T08:50:42;6.70;;;4.50;;
7336;SDS011;54510;42.016;23.098;2023-07-31T08:53:08;5.85;;;4.57;;
7336;SDS011;54510;42.016;23.098;2023-07-31T08:55:34;4.60;;;3.95;;
7336;SDS011;54510;42.016;23.098;2023-07-31T08:58:00;4.88;;;4.32;;
7336;SDS011;54510;42.016;23.098;2023-07-31T09:00:28;7.68;;;4.65;;
7336;SDS011;54510;42.016;23.098;2023-07-31T09:02:57;5.85;;;5.10;;
7336;SDS011;54510;42.016;23.098;2023-07-31T09:05:30;6.28;;;4.72;;
7336;SDS011;54510;42.016;23.098;2023-07-31T09:07:57;6.35;;;4.60;;
7336;SDS011;54510;42.016;23.098;2023-07-31T09:10:23;6.32;;;4.57;;
7336;SDS011;54510;42.016;23.098;2023-07-31T09:12:49;6.82;;;4.72;;
7336;SDS011;54510;42.016;23.098;2023-07-31T09:15:16;7.65;;;4.43;;
7336;SDS011;54510;42.016;23.098;2023-07-31T09:17:42;6.20;;;4.85;;
7336;SDS011;54510;42.016;23.098;2023-07-31T09:20:19;4.78;;;3.50;;
7336;SDS011;54510;42.016;23.098;2023-07-31T09:22:46;7.50;;;3.88;;
7336;SDS011;54510;42.016;23.098;2023-07-31T09:25:14;4.38;;;3.35;;
7336;SDS011;54510;42.016;23.098;2023-07-31T09:28:03;4.78;;;3.22;;
7336;SDS011;54510;42.016;23.098;2023-07-31T09:30:30;5.00;;;2.95;;
7336;SDS011;54510;42.016;23.098;2023-07-31T09:33:05;6.47;;;3.13;;
7336;SDS011;54510;42.016;23.098;2023-07-31T09:35:33;3.40;;;2.75;;
7336;SDS011;54510;42.016;23.098;2023-07-31T09:38:01;5.43;;;3.40;;
7336;SDS011;54510;42.016;23.098;2023-07-31T09:40:35;4.32;;;3.33;;
7336;SDS011;54510;42.016;23.098;2023-07-31T09:43:16;4.80;;;3.83;;
7336;SDS011;54510;42.016;23.098;2023-07-31T09:45:44;4.45;;;3.60;;
7336;SDS011;54510;42.016;23.098;2023-07-31T09:48:11;3.60;;;2.75;;
7336;SDS011;54510;42.016;23.098;2023-07-31T09:50:41;3.80;;;2.85;;
7336;SDS011;54510;42.016;23.098;2023-07-31T09:53:08;5.82;;;3.17;;
7336;SDS011;54510;42.016;23.098;2023-07-31T09:55:35;3.63;;;2.58;;
7336;SDS011;54510;42.016;23.098;2023-07-31T09:58:03;5.78;;;2.80;;
7336;SDS011;54510;42.016;23.098;2023-07-31T10:00:30;3.25;;;2.38;;
7336;SDS011;54510;42.016;23.098;2023-07-31T10:03:00;4.03;;;2.13;;
7336;SDS011;54510;42.016;23.098;2023-07-31T10:05:30;4.30;;;2.83;;
7336;SDS011;54510;42.016;23.098;2023-07-31T10:08:05;2.60;;;2.28;;
7336;SDS011;54510;42.016;23.098;2023-07-31T10:10:35;2.97;;;1.98;;
7336;SDS011;54510;42.016;23.098;2023-07-31T10:13:02;4.05;;;2.58;;
7336;SDS011;54510;42.016;23.098;2023-07-31T10:15:29;3.17;;;2.40;;
7336;SDS011;54510;42.016;23.098;2023-07-31T10:17:56;5.32;;;2.92;;
7336;SDS011;54510;42.016;23.098;2023-07-31T10:20:23;3.13;;;2.58;;
7336;SDS011;54510;42.016;23.098;2023-07-31T10:22:50;4.18;;;2.38;;
7336;SDS011;54510;42.016;23.098;2023-07-31T10:25:16;3.30;;;2.40;;
7336;SDS011;54510;42.016;23.098;2023-07-31T10:27:44;4.63;;;1.98;;
7336;SDS011;54510;42.016;23.098;2023-07-31T10:30:14;2.92;;;2.10;;
7336;SDS011;54510;42.016;23.098;2023-07-31T10:32:41;4.40;;;2.10;;
7336;SDS011;54510;42.016;23.098;2023-07-31T10:35:09;4.10;;;2.10;;
7336;SDS011;54510;42.016;23.098;2023-07-31T10:37:42;3.55;;;2.67;;
7336;SDS011;54510;42.016;23.098;2023-07-31T10:40:12;3.78;;;2.08;;
7336;SDS011;54510;42.016;23.098;2023-07-31T10:42:48;2.60;;;2.10;;
7336;SDS011;54510;42.016;23.098;2023-07-31T10:45:33;2.45;;;1.63;;
7336;SDS011;54510;42.016;23.098;2023-07-31T10:48:15;2.40;;;1.80;;
7336;SDS011;54510;42.016;23.098;2023-07-31T10:53:28;2.95;;;1.88;;
7336;SDS011;54510;42.016;23.098;2023-07-31T10:55:58;3.20;;;1.97;;
7336;SDS011;54510;42.016;23.098;2023-07-31T10:58:25;2.53;;;1.90;;
7336;SDS011;54510;42.016;23.098;2023-07-31T11:00:50;2.92;;;1.98;;
7336;SDS011;54510;42.016;23.098;2023-07-31T11:03:24;2.63;;;1.92;;
7336;SDS011;54510;42.016;23.098;2023-07-31T11:05:52;3.75;;;1.90;;
7336;SDS011;54510;42.016;23.098;2023-07-31T11:08:27;2.58;;;1.60;;
7336;SDS011;54510;42.016;23.098;2023-07-31T11:15:57;2.10;;;1.33;;
7336;SDS011;54510;42.016;23.098;2023-07-31T11:18:25;2.88;;;1.20;;
7336;SDS011;54510;42.016;23.098;2023-07-31T11:20:52;5.18;;;1.50;;
7336;SDS011;54510;42.016;23.098;2023-07-31T11:23:17;1.65;;;1.20;;
7336;SDS011;54510;42.016;23.098;2023-07-31T11:25:44;2.47;;;1.42;;
7336;SDS011;54510;42.016;23.098;2023-07-31T11:28:11;2.85;;;1.42;;
7336;SDS011;54510;42.016;23.098;2023-07-31T11:30:38;2.63;;;1.55;;
7336;SDS011;54510;42.016;23.098;2023-07-31T11:33:05;2.45;;;1.55;;
7336;SDS011;54510;42.016;23.098;2023-07-31T11:35:32;5.68;;;1.98;;
7336;SDS011;54510;42.016;23.098;2023-07-31T11:37:59;4.00;;;2.17;;
7336;SDS011;54510;42.016;23.098;2023-07-31T11:40:25;2.50;;;1.63;;
7336;SDS011;54510;42.016;23.098;2023-07-31T11:42:57;1.73;;;1.20;;
7336;SDS011;54510;42.016;23.098;2023-07-31T11:45:26;2.25;;;1.55;;
7336;SDS011;54510;42.016;23.098;2023-07-31T11:47:56;2.45;;;1.40;;
7336;SDS011;54510;42.016;23.098;2023-07-31T11:50:22;2.88;;;1.73;;
7336;SDS011;54510;42.016;23.098;2023-07-31T11:52:51;5.18;;;1.75;;
7336;SDS011;54510;42.016;23.098;2023-07-31T11:55:20;2.28;;;1.48;;
7336;SDS011;54510;42.016;23.098;2023-07-31T11:57:45;4.18;;;1.77;;
7336;SDS011;54510;42.016;23.098;2023-07-31T12:00:12;2.40;;;1.55;;
7336;SDS011;54510;42.016;23.098;2023-07-31T12:02:39;2.65;;;1.50;;
7336;SDS011;54510;42.016;23.098;2023-07-31T12:05:06;2.92;;;2.25;;
7336;SDS011;54510;42.016;23.098;2023-07-31T12:07:51;2.10;;;1.52;;
7336;SDS011;54510;42.016;23.098;2023-07-31T12:10:24;2.60;;;1.55;;
7336;SDS011;54510;42.016;23.098;2023-07-31T12:13:05;5.22;;;1.77;;
7336;SDS011;54510;42.016;23.098;2023-07-31T12:15:41;3.38;;;1.92;;
7336;SDS011;54510;42.016;23.098;2023-07-31T12:18:11;3.65;;;2.42;;
7336;SDS011;54510;42.016;23.098;2023-07-31T12:20:45;3.05;;;1.77;;
7336;SDS011;54510;42.016;23.098;2023-07-31T12:23:21;2.88;;;1.40;;
7336;SDS011;54510;42.016;23.098;2023-07-31T12:31:03;5.07;;;1.45;;
7336;SDS011;54510;42.016;23.098;2023-07-31T12:33:33;2.85;;;1.50;;
7336;SDS011;54510;42.016;23.098;2023-07-31T12:36:00;2.63;;;1.88;;
7336;SDS011;54510;42.016;23.098;2023-07-31T12:38:27;2.72;;;1.48;;
7336;SDS011;54510;42.016;23.098;2023-07-31T12:40:53;3.72;;;1.42;;
7336;SDS011;54510;42.016;23.098;2023-07-31T12:43:18;3.85;;;1.45;;
7336;SDS011;54510;42.016;23.098;2023-07-31T12:45:44;2.08;;;1.35;;
7336;SDS011;54510;42.016;23.098;2023-07-31T12:48:09;1.75;;;1.30;;
7336;SDS011;54510;42.016;23.098;2023-07-31T12:50:35;2.45;;;1.60;;
7336;SDS011;54510;42.016;23.098;2023-07-31T12:53:01;2.67;;;1.80;;
7336;SDS011;54510;42.016;23.098;2023-07-31T12:55:31;2.90;;;1.67;;
7336;SDS011;54510;42.016;23.098;2023-07-31T12:57:59;2.60;;;1.88;;
7336;SDS011;54510;42.016;23.098;2023-07-31T13:00:28;2.10;;;1.40;;
7336;SDS011;54510;42.016;23.098;2023-07-31T13:02:53;2.65;;;1.70;;
7336;SDS011;54510;42.016;23.098;2023-07-31T13:05:19;3.88;;;1.50;;
7336;SDS011;54510;42.016;23.098;2023-07-31T13:07:45;3.33;;;1.40;;
7336;SDS011;54510;42.016;23.098;2023-07-31T13:10:11;1.88;;;1.20;;
7336;SDS011;54510;42.016;23.098;2023-07-31T13:12:37;2.72;;;1.70;;
7336;SDS011;54510;42.016;23.098;2023-07-31T13:15:03;2.05;;;1.23;;
7336;SDS011;54510;42.016;23.098;2023-07-31T13:17:29;2.03;;;1.20;;
7336;SDS011;54510;42.016;23.098;2023-07-31T13:19:55;1.95;;;1.25;;
7336;SDS011;54510;42.016;23.098;2023-07-31T13:22:20;2.72;;;1.50;;
7336;SDS011;54510;42.016;23.098;2023-07-31T13:24:46;2.50;;;1.63;;
7336;SDS011;54510;42.016;23.098;2023-07-31T13:27:11;5.43;;;2.10;;
7336;SDS011;54510;42.016;23.098;2023-07-31T13:29:36;2.70;;;1.60;;
7336;SDS011;54510;42.016;23.098;2023-07-31T13:32:02;2.30;;;1.92;;
7336;SDS011;54510;42.016;23.098;2023-07-31T13:34:28;2.08;;;1.67;;
7336;SDS011;54510;42.016;23.098;2023-07-31T13:36:54;3.15;;;2.03;;
7336;SDS011;54510;42.016;23.098;2023-07-31T13:39:20;3.85;;;2.42;;
7336;SDS011;54510;42.016;23.098;2023-07-31T13:41:46;3.03;;;2.47;;
7336;SDS011;54510;42.016;23.098;2023-07-31T13:44:11;4.18;;;2.47;;
7336;SDS011;54510;42.016;23.098;2023-07-31T13:46:37;3.35;;;3.00;;
7336;SDS011;54510;42.016;23.098;2023-07-31T13:49:02;5.10;;;2.45;;
7336;SDS011;54510;42.016;23.098;2023-07-31T13:51:27;5.47;;;2.60;;
7336;SDS011;54510;42.016;23.098;2023-07-31T13:53:53;6.07;;;2.88;;
7336;SDS011;54510;42.016;23.098;2023-07-31T13:56:19;3.50;;;2.05;;
7336;SDS011;54510;42.016;23.098;2023-07-31T13:58:44;6.28;;;2.65;;
7336;SDS011;54510;42.016;23.098;2023-07-31T14:01:09;5.28;;;2.80;;
7336;SDS011;54510;42.016;23.098;2023-07-31T14:03:35;4.47;;;2.67;;
7336;SDS011;54510;42.016;23.098;2023-07-31T14:06:00;3.03;;;2.35;;
7336;SDS011;54510;42.016;23.098;2023-07-31T14:08:26;4.60;;;2.70;;
7336;SDS011;54510;42.016;23.098;2023-07-31T14:10:51;4.35;;;2.53;;
7336;SDS011;54510;42.016;23.098;2023-07-31T14:13:17;2.95;;;2.45;;
7336;SDS011;54510;42.016;23.098;2023-07-31T14:15:42;5.15;;;3.00;;
7336;SDS011;54510;42.016;23.098;2023-07-31T14:18:08;8.05;;;4.00;;
7336;SDS011;54510;42.016;23.098;2023-07-31T14:20:34;4.65;;;3.22;;
7336;SDS011;54510;42.016;23.098;2023-07-31T14:22:59;5.10;;;3.50;;
7336;SDS011;54510;42.016;23.098;2023-07-31T14:25:25;4.20;;;3.50;;
7336;SDS011;54510;42.016;23.098;2023-07-31T14:27:51;4.45;;;3.13;;
7336;SDS011;54510;42.016;23.098;2023-07-31T14:30:16;7.88;;;4.40;;
7336;SDS011;54510;42.016;23.098;2023-07-31T14:32:43;5.45;;;4.28;;
7336;SDS011;54510;42.016;23.098;2023-07-31T14:35:08;6.53;;;4.50;;
7336;SDS011;54510;42.016;23.098;2023-07-31T14:37:41;6.20;;;4.43;;
7336;SDS011;54510;42.016;23.098;2023-07-31T14:40:08;5.05;;;4.55;;
7336;SDS011;54510;42.016;23.098;2023-07-31T14:42:35;4.75;;;3.72;;
7336;SDS011;54510;42.016;23.098;2023-07-31T14:45:02;5.90;;;4.55;;
7336;SDS011;54510;42.016;23.098;2023-07-31T14:47:28;5.57;;;4.85;;
7336;SDS011;54510;42.016;23.098;2023-07-31T14:49:56;6.85;;;5.47;;
7336;SDS011;54510;42.016;23.098;2023-07-31T14:52:21;5.65;;;3.90;;
7336;SDS011;54510;42.016;23.098;2023-07-31T14:54:47;6.38;;;4.57;;
7336;SDS011;54510;42.016;23.098;2023-07-31T14:57:12;4.40;;;3.80;;
7336;SDS011;54510;42.016;23.098;2023-07-31T14:59:38;5.40;;;4.50;;
7336;SDS011;54510;42.016;23.098;2023-07-31T15:02:03;8.02;;;4.47;;